sensor_id;sensor_type;location;lat;lon;timestamp;temperature;humidity
12769;DHT22;6448;48.916;8.990;2022-08-05T00:00:00;33.30;29.80
12769;DHT22;6448;48.916;8.990;2022-08-05T00:01:01;33.30;29.70
12769;DHT22;6448;48.916;8.990;2022-08-05T00:02:03;33.30;29.70
12769;DHT22;6448;48.916;8.990;2022-08-05T00:03:04;33.20;29.70
12769;DHT22;6448;48.916;8.990;2022-08-05T00:04:06;33.20;29.70
12769;DHT22;6448;48.916;8.990;2022-08-05T00:05:08;33.20;29.70
12769;DHT22;6448;48.916;8.990;2022-08-05T00:06:10;33.20;29.90
12769;DHT22;6448;48.916;8.990;2022-08-05T00:07:11;33.10;30.00
12769;DHT22;6448;48.916;8.990;2022-08-05T00:08:12;33.10;30.00
12769;DHT22;6448;48.916;8.990;2022-08-05T00:09:13;33.10;30.10
12769;DHT22;6448;48.916;8.990;2022-08-05T00:10:15;33.00;30.20
12769;DHT22;6448;48.916;8.990;2022-08-05T00:11:19;32.90;30.20
12769;DHT22;6448;48.916;8.990;2022-08-05T00:12:21;32.90;30.30
12769;DHT22;6448;48.916;8.990;2022-08-05T00:13:21;32.90;30.30
12769;DHT22;6448;48.916;8.990;2022-08-05T00:14:23;32.90;30.40
12769;DHT22;6448;48.916;8.990;2022-08-05T00:15:24;32.80;30.30
12769;DHT22;6448;48.916;8.990;2022-08-05T00:16:26;32.80;30.30
12769;DHT22;6448;48.916;8.990;2022-08-05T00:17:27;32.80;30.30
12769;DHT22;6448;48.916;8.990;2022-08-05T00:18:29;32.70;30.20
12769;DHT22;6448;48.916;8.990;2022-08-05T00:19:29;32.70;30.20
12769;DHT22;6448;48.916;8.990;2022-08-05T00:20:32;32.60;30.20
12769;DHT22;6448;48.916;8.990;2022-08-05T00:21:33;32.60;30.30
12769;DHT22;6448;48.916;8.990;2022-08-05T00:22:35;32.60;30.30
12769;DHT22;6448;48.916;8.990;2022-08-05T00:23:37;32.60;30.30
12769;DHT22;6448;48.916;8.990;2022-08-05T00:24:39;32.50;30.20
12769;DHT22;6448;48.916;8.990;2022-08-05T00:25:39;32.50;30.10
12769;DHT22;6448;48.916;8.990;2022-08-05T00:26:41;32.50;30.10
12769;DHT22;6448;48.916;8.990;2022-08-05T00:27:42;32.50;30.20
12769;DHT22;6448;48.916;8.990;2022-08-05T00:28:44;32.40;30.20
12769;DHT22;6448;48.916;8.990;2022-08-05T00:29:44;32.50;30.30
12769;DHT22;6448;48.916;8.990;2022-08-05T00:30:46;32.40;30.20
12769;DHT22;6448;48.916;8.990;2022-08-05T00:31:47;32.30;30.20
12769;DHT22;6448;48.916;8.990;2022-08-05T00:32:49;32.40;30.30
12769;DHT22;6448;48.916;8.990;2022-08-05T00:33:49;32.40;30.20
12769;DHT22;6448;48.916;8.990;2022-08-05T00:34:51;32.40;30.20
12769;DHT22;6448;48.916;8.990;2022-08-05T00:35:54;32.30;30.00
12769;DHT22;6448;48.916;8.990;2022-08-05T00:36:55;32.40;30.10
12769;DHT22;6448;48.916;8.990;2022-08-05T00:37:56;32.30;30.00
12769;DHT22;6448;48.916;8.990;2022-08-05T00:38:58;32.30;30.00
12769;DHT22;6448;48.916;8.990;2022-08-05T00:39:59;32.30;30.10
12769;DHT22;6448;48.916;8.990;2022-08-05T00:41:00;32.30;30.10
12769;DHT22;6448;48.916;8.990;2022-08-05T00:42:05;32.30;30.10
12769;DHT22;6448;48.916;8.990;2022-08-05T00:43:05;32.20;30.00
12769;DHT22;6448;48.916;8.990;2022-08-05T00:44:07;32.20;30.00
12769;DHT22;6448;48.916;8.990;2022-08-05T00:45:09;32.20;30.00
12769;DHT22;6448;48.916;8.990;2022-08-05T00:46:11;32.20;29.90
12769;DHT22;6448;48.916;8.990;2022-08-05T00:47:12;32.10;29.80
12769;DHT22;6448;48.916;8.990;2022-08-05T00:48:15;32.10;29.70
12769;DHT22;6448;48.916;8.990;2022-08-05T00:49:16;32.00;29.60
12769;DHT22;6448;48.916;8.990;2022-08-05T00:50:19;32.00;29.60
12769;DHT22;6448;48.916;8.990;2022-08-05T00:51:21;31.90;29.60
12769;DHT22;6448;48.916;8.990;2022-08-05T00:52:23;31.90;29.70
12769;DHT22;6448;48.916;8.990;2022-08-05T00:53:24;31.90;29.80
12769;DHT22;6448;48.916;8.990;2022-08-05T00:54:26;31.90;29.90
12769;DHT22;6448;48.916;8.990;2022-08-05T00:55:27;31.90;29.90
12769;DHT22;6448;48.916;8.990;2022-08-05T00:56:29;31.80;30.00
12769;DHT22;6448;48.916;8.990;2022-08-05T00:57:29;31.80;30.10
12769;DHT22;6448;48.916;8.990;2022-08-05T00:58:31;31.70;30.10
12769;DHT22;6448;48.916;8.990;2022-08-05T00:59:32;31.70;30.30
12769;DHT22;6448;48.916;8.990;2022-08-05T01:00:34;31.70;30.50
12769;DHT22;6448;48.916;8.990;2022-08-05T01:01:34;31.60;30.60
12769;DHT22;6448;48.916;8.990;2022-08-05T01:02:36;31.50;30.70
12769;DHT22;6448;48.916;8.990;2022-08-05T01:03:37;31.60;30.90
12769;DHT22;6448;48.916;8.990;2022-08-05T01:04:39;31.50;31.00
12769;DHT22;6448;48.916;8.990;2022-08-05T01:05:40;31.60;31.20
12769;DHT22;6448;48.916;8.990;2022-08-05T01:06:43;31.60;31.40
12769;DHT22;6448;48.916;8.990;2022-08-05T01:07:46;31.50;31.50
12769;DHT22;6448;48.916;8.990;2022-08-05T01:08:48;31.50;31.70
12769;DHT22;6448;48.916;8.990;2022-08-05T01:09:50;31.50;31.80
12769;DHT22;6448;48.916;8.990;2022-08-05T01:10:53;31.50;32.00
12769;DHT22;6448;48.916;8.990;2022-08-05T01:11:58;31.50;32.20
12769;DHT22;6448;48.916;8.990;2022-08-05T01:13:07;31.50;32.30
12769;DHT22;6448;48.916;8.990;2022-08-05T01:14:15;31.50;32.50
12769;DHT22;6448;48.916;8.990;2022-08-05T01:15:21;31.50;32.60
12769;DHT22;6448;48.916;8.990;2022-08-05T01:16:29;31.50;32.80
12769;DHT22;6448;48.916;8.990;2022-08-05T01:17:37;31.50;33.00
12769;DHT22;6448;48.916;8.990;2022-08-05T01:18:41;31.50;33.20
12769;DHT22;6448;48.916;8.990;2022-08-05T01:19:47;31.50;33.30
12769;DHT22;6448;48.916;8.990;2022-08-05T01:20:57;31.40;33.30
12769;DHT22;6448;48.916;8.990;2022-08-05T01:22:17;31.50;33.60
12769;DHT22;6448;48.916;8.990;2022-08-05T01:23:34;31.40;33.80
12769;DHT22;6448;48.916;8.990;2022-08-05T01:24:49;31.40;33.90
12769;DHT22;6448;48.916;8.990;2022-08-05T01:26:06;31.40;34.10
12769;DHT22;6448;48.916;8.990;2022-08-05T01:27:25;31.40;34.20
12769;DHT22;6448;48.916;8.990;2022-08-05T01:28:35;31.40;34.30
12769;DHT22;6448;48.916;8.990;2022-08-05T01:29:40;31.40;34.40
12769;DHT22;6448;48.916;8.990;2022-08-05T01:30:50;31.40;34.60
12769;DHT22;6448;48.916;8.990;2022-08-05T01:31:54;31.40;34.70
12769;DHT22;6448;48.916;8.990;2022-08-05T01:32:59;31.40;34.80
12769;DHT22;6448;48.916;8.990;2022-08-05T01:34:08;31.30;34.90
12769;DHT22;6448;48.916;8.990;2022-08-05T01:35:14;31.30;35.00
12769;DHT22;6448;48.916;8.990;2022-08-05T01:36:16;31.30;35.10
12769;DHT22;6448;48.916;8.990;2022-08-05T01:37:23;31.30;35.10
12769;DHT22;6448;48.916;8.990;2022-08-05T01:38:25;31.30;35.20
12769;DHT22;6448;48.916;8.990;2022-08-05T01:39:30;31.30;35.20
12769;DHT22;6448;48.916;8.990;2022-08-05T01:40:32;31.30;35.30
12769;DHT22;6448;48.916;8.990;2022-08-05T01:41:35;31.30;35.30
12769;DHT22;6448;48.916;8.990;2022-08-05T01:42:38;31.30;35.40
12769;DHT22;6448;48.916;8.990;2022-08-05T01:43:43;31.30;35.50
12769;DHT22;6448;48.916;8.990;2022-08-05T01:44:45;31.30;35.60
12769;DHT22;6448;48.916;8.990;2022-08-05T01:45:48;31.30;35.60
12769;DHT22;6448;48.916;8.990;2022-08-05T01:46:49;31.30;35.70
12769;DHT22;6448;48.916;8.990;2022-08-05T01:47:52;31.30;35.70
12769;DHT22;6448;48.916;8.990;2022-08-05T01:48:55;31.30;35.80
12769;DHT22;6448;48.916;8.990;2022-08-05T01:49:58;31.30;35.80
12769;DHT22;6448;48.916;8.990;2022-08-05T01:51:02;31.30;35.90
12769;DHT22;6448;48.916;8.990;2022-08-05T01:52:04;31.30;36.00
12769;DHT22;6448;48.916;8.990;2022-08-05T01:53:10;31.30;36.00
12769;DHT22;6448;48.916;8.990;2022-08-05T01:54:11;31.30;36.10
12769;DHT22;6448;48.916;8.990;2022-08-05T01:55:16;31.20;36.00
12769;DHT22;6448;48.916;8.990;2022-08-05T01:56:18;31.30;36.10
12769;DHT22;6448;48.916;8.990;2022-08-05T01:57:24;31.30;36.20
12769;DHT22;6448;48.916;8.990;2022-08-05T01:58:26;31.30;36.30
12769;DHT22;6448;48.916;8.990;2022-08-05T01:59:31;31.30;36.30
12769;DHT22;6448;48.916;8.990;2022-08-05T02:00:35;31.30;36.30
12769;DHT22;6448;48.916;8.990;2022-08-05T02:01:38;31.30;36.30
12769;DHT22;6448;48.916;8.990;2022-08-05T02:02:43;31.30;36.20
12769;DHT22;6448;48.916;8.990;2022-08-05T02:03:46;31.30;36.30
12769;DHT22;6448;48.916;8.990;2022-08-05T02:04:50;31.30;36.30
12769;DHT22;6448;48.916;8.990;2022-08-05T02:05:52;31.30;36.30
12769;DHT22;6448;48.916;8.990;2022-08-05T02:06:55;31.30;36.30
12769;DHT22;6448;48.916;8.990;2022-08-05T02:07:56;31.30;36.20
12769;DHT22;6448;48.916;8.990;2022-08-05T02:08:58;31.30;36.20
12769;DHT22;6448;48.916;8.990;2022-08-05T02:09:59;31.40;36.30
12769;DHT22;6448;48.916;8.990;2022-08-05T02:11:05;31.40;36.20
12769;DHT22;6448;48.916;8.990;2022-08-05T02:12:11;31.40;36.30
12769;DHT22;6448;48.916;8.990;2022-08-05T02:13:19;31.40;36.20
12769;DHT22;6448;48.916;8.990;2022-08-05T02:14:28;31.40;36.20
12769;DHT22;6448;48.916;8.990;2022-08-05T02:18:17;31.40;36.30
12769;DHT22;6448;48.916;8.990;2022-08-05T02:19:27;31.40;36.30
12769;DHT22;6448;48.916;8.990;2022-08-05T02:20:33;31.40;36.30
12769;DHT22;6448;48.916;8.990;2022-08-05T02:21:41;31.40;36.30
12769;DHT22;6448;48.916;8.990;2022-08-05T02:22:45;31.40;36.30
12769;DHT22;6448;48.916;8.990;2022-08-05T02:23:52;31.40;36.30
12769;DHT22;6448;48.916;8.990;2022-08-05T02:25:01;31.50;36.30
12769;DHT22;6448;48.916;8.990;2022-08-05T02:26:06;31.50;36.40
12769;DHT22;6448;48.916;8.990;2022-08-05T02:27:09;31.50;36.40
12769;DHT22;6448;48.916;8.990;2022-08-05T02:28:12;31.40;36.20
12769;DHT22;6448;48.916;8.990;2022-08-05T02:29:18;31.50;36.20
12769;DHT22;6448;48.916;8.990;2022-08-05T02:30:23;31.50;36.20
12769;DHT22;6448;48.916;8.990;2022-08-05T02:31:27;31.50;36.20
12769;DHT22;6448;48.916;8.990;2022-08-05T02:32:30;31.50;36.20
12769;DHT22;6448;48.916;8.990;2022-08-05T02:33:38;31.60;36.20
12769;DHT22;6448;48.916;8.990;2022-08-05T02:34:42;31.60;36.20
12769;DHT22;6448;48.916;8.990;2022-08-05T02:35:45;31.60;36.20
12769;DHT22;6448;48.916;8.990;2022-08-05T02:36:50;31.60;36.10
12769;DHT22;6448;48.916;8.990;2022-08-05T02:37:54;31.70;36.20
12769;DHT22;6448;48.916;8.990;2022-08-05T02:38:56;31.70;36.20
12769;DHT22;6448;48.916;8.990;2022-08-05T02:40:00;31.60;36.20
12769;DHT22;6448;48.916;8.990;2022-08-05T02:41:02;31.60;36.30
12769;DHT22;6448;48.916;8.990;2022-08-05T02:42:06;31.50;36.30
12769;DHT22;6448;48.916;8.990;2022-08-05T02:43:09;31.60;36.20
12769;DHT22;6448;48.916;8.990;2022-08-05T02:44:12;31.60;36.20
12769;DHT22;6448;48.916;8.990;2022-08-05T02:45:14;31.60;36.20
12769;DHT22;6448;48.916;8.990;2022-08-05T02:46:17;31.60;36.20
12769;DHT22;6448;48.916;8.990;2022-08-05T02:47:19;31.60;36.20
12769;DHT22;6448;48.916;8.990;2022-08-05T02:48:23;31.60;36.20
12769;DHT22;6448;48.916;8.990;2022-08-05T02:49:30;31.60;36.20
12769;DHT22;6448;48.916;8.990;2022-08-05T02:50:34;31.60;36.20
12769;DHT22;6448;48.916;8.990;2022-08-05T02:51:36;31.60;36.20
12769;DHT22;6448;48.916;8.990;2022-08-05T02:52:39;31.60;36.20
12769;DHT22;6448;48.916;8.990;2022-08-05T02:53:42;31.60;36.20
12769;DHT22;6448;48.916;8.990;2022-08-05T02:54:44;31.60;36.20
12769;DHT22;6448;48.916;8.990;2022-08-05T02:55:47;31.50;36.10
12769;DHT22;6448;48.916;8.990;2022-08-05T02:56:50;31.60;36.20
12769;DHT22;6448;48.916;8.990;2022-08-05T02:57:55;31.40;36.10
12769;DHT22;6448;48.916;8.990;2022-08-05T02:58:58;31.60;36.30
12769;DHT22;6448;48.916;8.990;2022-08-05T03:00:01;31.50;36.30
12769;DHT22;6448;48.916;8.990;2022-08-05T03:01:02;31.50;36.40
12769;DHT22;6448;48.916;8.990;2022-08-05T03:02:04;31.50;36.40
12769;DHT22;6448;48.916;8.990;2022-08-05T03:03:06;31.50;36.40
12769;DHT22;6448;48.916;8.990;2022-08-05T03:04:11;31.50;36.40
12769;DHT22;6448;48.916;8.990;2022-08-05T03:05:15;31.50;36.50
12769;DHT22;6448;48.916;8.990;2022-08-05T03:06:18;31.50;36.50
12769;DHT22;6448;48.916;8.990;2022-08-05T03:07:20;31.40;36.40
12769;DHT22;6448;48.916;8.990;2022-08-05T03:08:22;31.40;36.40
12769;DHT22;6448;48.916;8.990;2022-08-05T03:09:23;31.50;36.60
12769;DHT22;6448;48.916;8.990;2022-08-05T03:10:26;31.40;36.50
12769;DHT22;6448;48.916;8.990;2022-08-05T03:11:27;31.40;36.50
12769;DHT22;6448;48.916;8.990;2022-08-05T03:12:29;31.50;36.60
12769;DHT22;6448;48.916;8.990;2022-08-05T03:13:30;31.40;36.60
12769;DHT22;6448;48.916;8.990;2022-08-05T03:14:32;31.40;36.60
12769;DHT22;6448;48.916;8.990;2022-08-05T03:15:33;31.40;36.60
12769;DHT22;6448;48.916;8.990;2022-08-05T03:16:34;31.40;36.60
12769;DHT22;6448;48.916;8.990;2022-08-05T03:17:35;31.40;36.60
12769;DHT22;6448;48.916;8.990;2022-08-05T03:18:37;31.40;36.70
12769;DHT22;6448;48.916;8.990;2022-08-05T03:19:38;31.40;36.70
12769;DHT22;6448;48.916;8.990;2022-08-05T03:20:41;31.50;36.80
12769;DHT22;6448;48.916;8.990;2022-08-05T03:21:42;31.40;37.30
12769;DHT22;6448;48.916;8.990;2022-08-05T03:22:46;31.40;36.80
12769;DHT22;6448;48.916;8.990;2022-08-05T03:23:47;31.40;36.80
12769;DHT22;6448;48.916;8.990;2022-08-05T03:24:50;31.40;36.80
12769;DHT22;6448;48.916;8.990;2022-08-05T03:25:51;31.40;36.80
12769;DHT22;6448;48.916;8.990;2022-08-05T03:26:53;31.40;36.80
12769;DHT22;6448;48.916;8.990;2022-08-05T03:27:54;31.40;36.80
12769;DHT22;6448;48.916;8.990;2022-08-05T03:28:57;31.40;37.00
12769;DHT22;6448;48.916;8.990;2022-08-05T03:29:58;31.40;36.90
12769;DHT22;6448;48.916;8.990;2022-08-05T03:31:01;31.40;36.90
12769;DHT22;6448;48.916;8.990;2022-08-05T03:32:02;31.40;36.90
12769;DHT22;6448;48.916;8.990;2022-08-05T03:33:05;31.40;37.00
12769;DHT22;6448;48.916;8.990;2022-08-05T03:34:06;31.30;36.90
12769;DHT22;6448;48.916;8.990;2022-08-05T03:35:08;31.30;37.00
12769;DHT22;6448;48.916;8.990;2022-08-05T03:36:10;31.30;37.00
12769;DHT22;6448;48.916;8.990;2022-08-05T03:37:12;31.20;37.00
12769;DHT22;6448;48.916;8.990;2022-08-05T03:38:14;31.30;37.10
12769;DHT22;6448;48.916;8.990;2022-08-05T03:39:14;31.30;37.20
12769;DHT22;6448;48.916;8.990;2022-08-05T03:40:16;31.30;37.30
12769;DHT22;6448;48.916;8.990;2022-08-05T03:41:17;31.30;37.30
12769;DHT22;6448;48.916;8.990;2022-08-05T03:42:19;31.20;37.30
12769;DHT22;6448;48.916;8.990;2022-08-05T03:43:20;31.20;37.30
12769;DHT22;6448;48.916;8.990;2022-08-05T03:44:24;31.20;37.40
12769;DHT22;6448;48.916;8.990;2022-08-05T03:45:25;31.20;37.40
12769;DHT22;6448;48.916;8.990;2022-08-05T03:46:26;31.20;37.40
12769;DHT22;6448;48.916;8.990;2022-08-05T03:47:27;31.10;37.50
12769;DHT22;6448;48.916;8.990;2022-08-05T03:48:30;31.20;37.50
12769;DHT22;6448;48.916;8.990;2022-08-05T03:49:30;31.20;37.50
12769;DHT22;6448;48.916;8.990;2022-08-05T03:50:37;31.10;37.60
12769;DHT22;6448;48.916;8.990;2022-08-05T03:51:48;31.10;37.60
12769;DHT22;6448;48.916;8.990;2022-08-05T03:52:55;31.10;37.60
12769;DHT22;6448;48.916;8.990;2022-08-05T03:54:02;31.10;37.60
12769;DHT22;6448;48.916;8.990;2022-08-05T03:55:09;31.10;37.60
12769;DHT22;6448;48.916;8.990;2022-08-05T03:56:16;31.10;37.80
12769;DHT22;6448;48.916;8.990;2022-08-05T03:57:24;31.10;37.80
12769;DHT22;6448;48.916;8.990;2022-08-05T03:58:27;31.10;37.80
12769;DHT22;6448;48.916;8.990;2022-08-05T03:59:32;31.00;37.80
12769;DHT22;6448;48.916;8.990;2022-08-05T04:00:34;31.10;37.80
12769;DHT22;6448;48.916;8.990;2022-08-05T04:01:38;31.10;37.90
12769;DHT22;6448;48.916;8.990;2022-08-05T04:02:41;31.10;37.90
12769;DHT22;6448;48.916;8.990;2022-08-05T04:03:46;31.10;37.90
12769;DHT22;6448;48.916;8.990;2022-08-05T04:04:48;31.00;37.80
12769;DHT22;6448;48.916;8.990;2022-08-05T04:05:50;31.00;37.80
12769;DHT22;6448;48.916;8.990;2022-08-05T04:06:53;30.90;37.80
12769;DHT22;6448;48.916;8.990;2022-08-05T04:07:55;31.00;38.00
12769;DHT22;6448;48.916;8.990;2022-08-05T04:08:56;31.00;38.00
12769;DHT22;6448;48.916;8.990;2022-08-05T04:09:59;31.00;38.10
12769;DHT22;6448;48.916;8.990;2022-08-05T04:11:01;31.00;38.20
12769;DHT22;6448;48.916;8.990;2022-08-05T04:12:03;30.90;38.10
12769;DHT22;6448;48.916;8.990;2022-08-05T04:13:05;31.00;38.30
12769;DHT22;6448;48.916;8.990;2022-08-05T04:14:07;31.00;38.30
12769;DHT22;6448;48.916;8.990;2022-08-05T04:15:09;30.90;38.30
12769;DHT22;6448;48.916;8.990;2022-08-05T04:16:12;30.90;38.30
12769;DHT22;6448;48.916;8.990;2022-08-05T04:17:13;30.80;38.20
12769;DHT22;6448;48.916;8.990;2022-08-05T04:18:15;30.80;38.30
12769;DHT22;6448;48.916;8.990;2022-08-05T04:19:16;30.80;38.30
12769;DHT22;6448;48.916;8.990;2022-08-05T04:20:18;30.80;38.40
12769;DHT22;6448;48.916;8.990;2022-08-05T04:21:20;30.40;38.30
12769;DHT22;6448;48.916;8.990;2022-08-05T04:22:23;30.70;38.50
12769;DHT22;6448;48.916;8.990;2022-08-05T04:23:25;30.70;38.60
12769;DHT22;6448;48.916;8.990;2022-08-05T04:24:27;30.70;38.70
12769;DHT22;6448;48.916;8.990;2022-08-05T04:25:28;30.80;38.80
12769;DHT22;6448;48.916;8.990;2022-08-05T04:26:30;30.60;38.80
12769;DHT22;6448;48.916;8.990;2022-08-05T04:27:31;30.60;39.40
12769;DHT22;6448;48.916;8.990;2022-08-05T04:28:32;30.60;38.90
12769;DHT22;6448;48.916;8.990;2022-08-05T04:29:34;30.60;38.90
12769;DHT22;6448;48.916;8.990;2022-08-05T04:30:35;30.60;39.00
12769;DHT22;6448;48.916;8.990;2022-08-05T04:31:36;30.50;39.00
12769;DHT22;6448;48.916;8.990;2022-08-05T04:32:38;30.60;39.20
12769;DHT22;6448;48.916;8.990;2022-08-05T04:33:39;30.50;39.20
12769;DHT22;6448;48.916;8.990;2022-08-05T04:34:41;30.50;39.30
12769;DHT22;6448;48.916;8.990;2022-08-05T04:35:42;30.50;39.20
12769;DHT22;6448;48.916;8.990;2022-08-05T04:36:44;30.50;39.30
12769;DHT22;6448;48.916;8.990;2022-08-05T04:37:46;30.50;39.30
12769;DHT22;6448;48.916;8.990;2022-08-05T04:38:48;30.40;39.40
12769;DHT22;6448;48.916;8.990;2022-08-05T04:39:49;30.50;39.40
12769;DHT22;6448;48.916;8.990;2022-08-05T04:40:51;30.40;39.40
12769;DHT22;6448;48.916;8.990;2022-08-05T04:41:52;30.40;39.50
12769;DHT22;6448;48.916;8.990;2022-08-05T04:42:53;30.40;39.50
12769;DHT22;6448;48.916;8.990;2022-08-05T04:43:54;30.40;39.50
12769;DHT22;6448;48.916;8.990;2022-08-05T04:44:56;30.30;39.50
12769;DHT22;6448;48.916;8.990;2022-08-05T04:45:58;30.40;39.70
12769;DHT22;6448;48.916;8.990;2022-08-05T04:46:59;30.30;39.60
12769;DHT22;6448;48.916;8.990;2022-08-05T04:48:05;30.30;39.70
12769;DHT22;6448;48.916;8.990;2022-08-05T04:49:06;30.30;39.70
12769;DHT22;6448;48.916;8.990;2022-08-05T04:50:09;30.30;39.80
12769;DHT22;6448;48.916;8.990;2022-08-05T04:51:09;30.30;39.80
12769;DHT22;6448;48.916;8.990;2022-08-05T04:52:12;30.30;39.80
12769;DHT22;6448;48.916;8.990;2022-08-05T04:53:15;30.30;39.80
12769;DHT22;6448;48.916;8.990;2022-08-05T04:54:17;29.90;39.60
12769;DHT22;6448;48.916;8.990;2022-08-05T04:55:19;30.20;39.80
12769;DHT22;6448;48.916;8.990;2022-08-05T04:56:21;30.30;39.90
12769;DHT22;6448;48.916;8.990;2022-08-05T04:57:22;30.20;39.80
12769;DHT22;6448;48.916;8.990;2022-08-05T04:58:23;30.20;39.90
12769;DHT22;6448;48.916;8.990;2022-08-05T04:59:25;30.20;40.00
12769;DHT22;6448;48.916;8.990;2022-08-05T05:00:26;30.20;39.90
12769;DHT22;6448;48.916;8.990;2022-08-05T05:01:27;30.10;40.00
12769;DHT22;6448;48.916;8.990;2022-08-05T05:02:28;30.20;40.10
12769;DHT22;6448;48.916;8.990;2022-08-05T05:03:30;30.20;40.20
12769;DHT22;6448;48.916;8.990;2022-08-05T05:04:32;30.20;40.20
12769;DHT22;6448;48.916;8.990;2022-08-05T05:05:33;30.20;40.30
12769;DHT22;6448;48.916;8.990;2022-08-05T05:06:35;30.20;40.30
12769;DHT22;6448;48.916;8.990;2022-08-05T05:07:36;30.20;40.30
12769;DHT22;6448;48.916;8.990;2022-08-05T05:08:39;30.00;40.20
12769;DHT22;6448;48.916;8.990;2022-08-05T05:09:41;30.30;40.40
12769;DHT22;6448;48.916;8.990;2022-08-05T05:10:44;30.20;40.50
12769;DHT22;6448;48.916;8.990;2022-08-05T05:11:46;30.20;40.50
12769;DHT22;6448;48.916;8.990;2022-08-05T05:12:47;30.00;40.40
12769;DHT22;6448;48.916;8.990;2022-08-05T05:13:48;30.20;40.60
12769;DHT22;6448;48.916;8.990;2022-08-05T05:14:49;30.10;40.60
12769;DHT22;6448;48.916;8.990;2022-08-05T05:15:51;30.00;40.50
12769;DHT22;6448;48.916;8.990;2022-08-05T05:16:51;30.10;40.60
12769;DHT22;6448;48.916;8.990;2022-08-05T05:17:53;30.10;40.70
12769;DHT22;6448;48.916;8.990;2022-08-05T05:18:54;30.10;40.70
12769;DHT22;6448;48.916;8.990;2022-08-05T05:19:56;30.10;40.80
12769;DHT22;6448;48.916;8.990;2022-08-05T05:20:57;30.10;40.90
12769;DHT22;6448;48.916;8.990;2022-08-05T05:21:58;30.10;41.60
12769;DHT22;6448;48.916;8.990;2022-08-05T05:23:00;30.10;41.00
12769;DHT22;6448;48.916;8.990;2022-08-05T05:24:05;30.10;41.00
12769;DHT22;6448;48.916;8.990;2022-08-05T05:25:08;30.10;41.10
12769;DHT22;6448;48.916;8.990;2022-08-05T05:26:10;30.10;41.10
12769;DHT22;6448;48.916;8.990;2022-08-05T05:27:10;30.10;41.20
12769;DHT22;6448;48.916;8.990;2022-08-05T05:28:12;30.10;41.20
12769;DHT22;6448;48.916;8.990;2022-08-05T05:29:13;30.10;41.30
12769;DHT22;6448;48.916;8.990;2022-08-05T05:30:15;30.10;41.40
12769;DHT22;6448;48.916;8.990;2022-08-05T05:31:16;30.10;41.50
12769;DHT22;6448;48.916;8.990;2022-08-05T05:32:18;30.10;41.60
12769;DHT22;6448;48.916;8.990;2022-08-05T05:33:19;30.10;41.70
12769;DHT22;6448;48.916;8.990;2022-08-05T05:34:21;30.00;41.70
12769;DHT22;6448;48.916;8.990;2022-08-05T05:35:22;30.30;42.10
12769;DHT22;6448;48.916;8.990;2022-08-05T05:36:23;30.10;42.10
12769;DHT22;6448;48.916;8.990;2022-08-05T05:37:24;30.00;42.20
12769;DHT22;6448;48.916;8.990;2022-08-05T05:38:26;30.00;42.90
12769;DHT22;6448;48.916;8.990;2022-08-05T05:39:28;29.90;42.30
12769;DHT22;6448;48.916;8.990;2022-08-05T05:40:30;30.00;42.40
12769;DHT22;6448;48.916;8.990;2022-08-05T05:41:31;30.00;42.50
12769;DHT22;6448;48.916;8.990;2022-08-05T05:42:33;30.00;42.60
12769;DHT22;6448;48.916;8.990;2022-08-05T05:43:34;29.90;42.60
12769;DHT22;6448;48.916;8.990;2022-08-05T05:44:36;30.00;42.80
12769;DHT22;6448;48.916;8.990;2022-08-05T05:45:36;30.00;43.00
12769;DHT22;6448;48.916;8.990;2022-08-05T05:46:38;30.00;43.00
12769;DHT22;6448;48.916;8.990;2022-08-05T05:47:39;30.00;43.10
12769;DHT22;6448;48.916;8.990;2022-08-05T05:48:41;30.00;43.10
12769;DHT22;6448;48.916;8.990;2022-08-05T05:49:43;30.00;43.10
12769;DHT22;6448;48.916;8.990;2022-08-05T05:50:44;29.90;43.10
12769;DHT22;6448;48.916;8.990;2022-08-05T05:51:45;29.90;43.20
12769;DHT22;6448;48.916;8.990;2022-08-05T05:52:47;29.90;43.20
12769;DHT22;6448;48.916;8.990;2022-08-05T05:53:48;29.90;43.20
12769;DHT22;6448;48.916;8.990;2022-08-05T05:54:52;29.90;43.30
12769;DHT22;6448;48.916;8.990;2022-08-05T05:55:52;29.90;43.30
12769;DHT22;6448;48.916;8.990;2022-08-05T05:56:54;29.90;43.20
12769;DHT22;6448;48.916;8.990;2022-08-05T05:57:55;29.90;43.20
12769;DHT22;6448;48.916;8.990;2022-08-05T05:58:57;29.90;43.30
12769;DHT22;6448;48.916;8.990;2022-08-05T05:59:57;30.00;43.30
12769;DHT22;6448;48.916;8.990;2022-08-05T06:00:59;29.80;43.30
12769;DHT22;6448;48.916;8.990;2022-08-05T06:02:00;29.90;43.30
12769;DHT22;6448;48.916;8.990;2022-08-05T06:03:02;29.90;43.40
12769;DHT22;6448;48.916;8.990;2022-08-05T06:04:03;29.90;43.40
12769;DHT22;6448;48.916;8.990;2022-08-05T06:05:06;30.00;43.60
12769;DHT22;6448;48.916;8.990;2022-08-05T06:06:07;30.00;43.50
12769;DHT22;6448;48.916;8.990;2022-08-05T06:07:09;30.00;43.50
12769;DHT22;6448;48.916;8.990;2022-08-05T06:08:10;29.90;43.40
12769;DHT22;6448;48.916;8.990;2022-08-05T06:09:12;30.00;43.40
12769;DHT22;6448;48.916;8.990;2022-08-05T06:10:14;30.20;43.50
12769;DHT22;6448;48.916;8.990;2022-08-05T06:11:15;30.00;43.40
12769;DHT22;6448;48.916;8.990;2022-08-05T06:12:16;30.10;43.50
12769;DHT22;6448;48.916;8.990;2022-08-05T06:13:18;30.20;43.50
12769;DHT22;6448;48.916;8.990;2022-08-05T06:14:19;30.10;43.50
12769;DHT22;6448;48.916;8.990;2022-08-05T06:15:20;30.10;43.40
12769;DHT22;6448;48.916;8.990;2022-08-05T06:16:22;29.80;43.10
12769;DHT22;6448;48.916;8.990;2022-08-05T06:17:23;30.10;43.20
12769;DHT22;6448;48.916;8.990;2022-08-05T06:18:25;30.10;43.20
12769;DHT22;6448;48.916;8.990;2022-08-05T06:19:26;30.20;43.20
12769;DHT22;6448;48.916;8.990;2022-08-05T06:20:28;30.20;43.20
12769;DHT22;6448;48.916;8.990;2022-08-05T06:21:29;30.20;43.10
12769;DHT22;6448;48.916;8.990;2022-08-05T06:22:33;30.20;43.10
12769;DHT22;6448;48.916;8.990;2022-08-05T06:23:34;30.20;43.00
12769;DHT22;6448;48.916;8.990;2022-08-05T06:24:40;30.20;42.80
12769;DHT22;6448;48.916;8.990;2022-08-05T06:25:43;30.40;42.90
12769;DHT22;6448;48.916;8.990;2022-08-05T06:26:45;30.20;42.70
12769;DHT22;6448;48.916;8.990;2022-08-05T06:27:45;30.10;42.80
12769;DHT22;6448;48.916;8.990;2022-08-05T06:28:47;30.30;43.00
12769;DHT22;6448;48.916;8.990;2022-08-05T06:29:48;30.20;43.00
12769;DHT22;6448;48.916;8.990;2022-08-05T06:30:50;30.30;43.00
12769;DHT22;6448;48.916;8.990;2022-08-05T06:31:51;30.30;42.80
12769;DHT22;6448;48.916;8.990;2022-08-05T06:32:53;30.40;42.60
12769;DHT22;6448;48.916;8.990;2022-08-05T06:33:54;30.30;42.50
12769;DHT22;6448;48.916;8.990;2022-08-05T06:34:56;30.30;42.50
12769;DHT22;6448;48.916;8.990;2022-08-05T06:35:57;30.30;42.50
12769;DHT22;6448;48.916;8.990;2022-08-05T06:36:59;30.40;43.00
12769;DHT22;6448;48.916;8.990;2022-08-05T06:38:00;30.40;42.30
12769;DHT22;6448;48.916;8.990;2022-08-05T06:39:02;30.40;42.30
12769;DHT22;6448;48.916;8.990;2022-08-05T06:40:04;30.40;42.30
12769;DHT22;6448;48.916;8.990;2022-08-05T06:41:07;30.40;42.30
12769;DHT22;6448;48.916;8.990;2022-08-05T06:42:08;30.50;42.10
12769;DHT22;6448;48.916;8.990;2022-08-05T06:43:10;30.40;41.90
12769;DHT22;6448;48.916;8.990;2022-08-05T06:44:10;30.40;41.90